sensor_id;sensor_type;location;lat;lon;timestamp;P1;durP1;ratioP1;P2;durP2;ratioP2
62475;SDS011;50739;45.670;11.936;2023-03-13T00:02:39;22.95;;;16.65;;
62475;SDS011;50739;45.670;11.936;2023-03-13T00:07:45;24.33;;;17.00;;
62475;SDS011;50739;45.670;11.936;2023-03-13T00:12:47;22.33;;;17.27;;
62475;SDS011;50739;45.670;11.936;2023-03-13T00:17:49;21.87;;;17.20;;
62475;SDS011;50739;45.670;11.936;2023-03-13T00:22:52;23.70;;;18.10;;
62475;SDS011;50739;45.670;11.936;2023-03-13T00:27:54;22.97;;;17.20;;
62475;SDS011;50739;45.670;11.936;2023-03-13T00:32:56;24.25;;;16.85;;
62475;SDS011;50739;45.670;11.936;2023-03-13T00:38:00;22.52;;;17.10;;
62475;SDS011;50739;45.670;11.936;2023-03-13T00:43:02;23.07;;;16.40;;
62475;SDS011;50739;45.670;11.936;2023-03-13T00:48:04;25.47;;;17.10;;
62475;SDS011;50739;45.670;11.936;2023-03-13T00:53:07;24.20;;;17.60;;
62475;SDS011;50739;45.670;11.936;2023-03-13T00:58:09;25.80;;;17.50;;
62475;SDS011;50739;45.670;11.936;2023-03-13T01:03:11;26.33;;;18.57;;
62475;SDS011;50739;45.670;11.936;2023-03-13T01:08:14;26.50;;;17.80;;
62475;SDS011;50739;45.670;11.936;2023-03-13T01:13:16;27.67;;;18.45;;
62475;SDS011;50739;45.670;11.936;2023-03-13T01:18:18;24.67;;;17.70;;
62475;SDS011;50739;45.670;11.936;2023-03-13T01:23:21;23.13;;;16.73;;
62475;SDS011;50739;45.670;11.936;2023-03-13T01:28:24;20.10;;;14.13;;
62475;SDS011;50739;45.670;11.936;2023-03-13T01:33:27;16.02;;;12.57;;
62475;SDS011;50739;45.670;11.936;2023-03-13T01:38:30;17.63;;;12.23;;
62475;SDS011;50739;45.670;11.936;2023-03-13T01:43:33;17.70;;;12.98;;
62475;SDS011;50739;45.670;11.936;2023-03-13T01:48:37;17.58;;;12.50;;
62475;SDS011;50739;45.670;11.936;2023-03-13T01:53:45;18.35;;;13.40;;
62475;SDS011;50739;45.670;11.936;2023-03-13T01:58:50;18.40;;;12.38;;
62475;SDS011;50739;45.670;11.936;2023-03-13T02:03:53;15.43;;;12.10;;
62475;SDS011;50739;45.670;11.936;2023-03-13T02:09:02;15.37;;;11.73;;
62475;SDS011;50739;45.670;11.936;2023-03-13T02:14:08;15.63;;;12.20;;
62475;SDS011;50739;45.670;11.936;2023-03-13T02:19:12;17.02;;;12.48;;
62475;SDS011;50739;45.670;11.936;2023-03-13T02:24:22;15.32;;;11.77;;
62475;SDS011;50739;45.670;11.936;2023-03-13T02:29:31;17.52;;;11.82;;
62475;SDS011;50739;45.670;11.936;2023-03-13T02:34:34;16.07;;;11.60;;
62475;SDS011;50739;45.670;11.936;2023-03-13T02:39:40;16.00;;;11.77;;
62475;SDS011;50739;45.670;11.936;2023-03-13T02:44:47;14.40;;;11.53;;
62475;SDS011;50739;45.670;11.936;2023-03-13T02:49:50;15.68;;;11.48;;
62475;SDS011;50739;45.670;11.936;2023-03-13T02:54:54;13.67;;;11.43;;
62475;SDS011;50739;45.670;11.936;2023-03-13T03:00:02;15.88;;;11.95;;
62475;SDS011;50739;45.670;11.936;2023-03-13T03:05:06;14.38;;;11.00;;
62475;SDS011;50739;45.670;11.936;2023-03-13T03:10:09;13.85;;;11.05;;
62475;SDS011;50739;45.670;11.936;2023-03-13T03:15:13;13.50;;;10.45;;
62475;SDS011;50739;45.670;11.936;2023-03-13T03:20:15;12.60;;;10.50;;
62475;SDS011;50739;45.670;11.936;2023-03-13T03:25:17;13.48;;;9.85;;
62475;SDS011;50739;45.670;11.936;2023-03-13T03:30:20;11.98;;;9.25;;
62475;SDS011;50739;45.670;11.936;2023-03-13T03:35:22;13.48;;;9.60;;
62475;SDS011;50739;45.670;11.936;2023-03-13T03:40:24;11.27;;;9.13;;
62475;SDS011;50739;45.670;11.936;2023-03-13T03:45:27;12.07;;;8.93;;
62475;SDS011;50739;45.670;11.936;2023-03-13T03:50:29;10.93;;;9.15;;
62475;SDS011;50739;45.670;11.936;2023-03-13T03:55:31;12.95;;;9.40;;
62475;SDS011;50739;45.670;11.936;2023-03-13T04:00:34;11.77;;;9.02;;
62475;SDS011;50739;45.670;11.936;2023-03-13T04:05:36;13.95;;;9.02;;
62475;SDS011;50739;45.670;11.936;2023-03-13T04:10:38;10.93;;;8.82;;
62475;SDS011;50739;45.670;11.936;2023-03-13T04:15:42;11.27;;;8.45;;
62475;SDS011;50739;45.670;11.936;2023-03-13T04:20:44;11.27;;;8.63;;
62475;SDS011;50739;45.670;11.936;2023-03-13T04:25:45;11.55;;;8.95;;
62475;SDS011;50739;45.670;11.936;2023-03-13T04:30:49;12.13;;;9.18;;
62475;SDS011;50739;45.670;11.936;2023-03-13T04:35:52;10.63;;;8.05;;
62475;SDS011;50739;45.670;11.936;2023-03-13T04:40:53;10.32;;;7.65;;
62475;SDS011;50739;45.670;11.936;2023-03-13T04:45:57;10.00;;;8.13;;
62475;SDS011;50739;45.670;11.936;2023-03-13T04:50:58;12.03;;;8.83;;
62475;SDS011;50739;45.670;11.936;2023-03-13T04:56:00;11.55;;;8.25;;
62475;SDS011;50739;45.670;11.936;2023-03-13T05:01:04;12.32;;;8.35;;
62475;SDS011;50739;45.670;11.936;2023-03-13T05:06:06;10.52;;;8.60;;
62475;SDS011;50739;45.670;11.936;2023-03-13T05:11:08;10.05;;;8.25;;
62475;SDS011;50739;45.670;11.936;2023-03-13T05:16:11;12.33;;;8.40;;
62475;SDS011;50739;45.670;11.936;2023-03-13T05:21:13;11.80;;;8.27;;
62475;SDS011;50739;45.670;11.936;2023-03-13T05:26:15;13.90;;;8.67;;
62475;SDS011;50739;45.670;11.936;2023-03-13T05:31:18;12.45;;;8.43;;
62475;SDS011;50739;45.670;11.936;2023-03-13T05:36:20;12.00;;;8.30;;
62475;SDS011;50739;45.670;11.936;2023-03-13T05:41:22;13.05;;;8.43;;
62475;SDS011;50739;45.670;11.936;2023-03-13T05:46:25;12.45;;;8.73;;
62475;SDS011;50739;45.670;11.936;2023-03-13T05:51:27;11.20;;;9.00;;
62475;SDS011;50739;45.670;11.936;2023-03-13T05:56:29;16.33;;;9.98;;
62475;SDS011;50739;45.670;11.936;2023-03-13T06:01:33;13.65;;;9.73;;
62475;SDS011;50739;45.670;11.936;2023-03-13T06:06:35;14.27;;;9.82;;
62475;SDS011;50739;45.670;11.936;2023-03-13T06:11:36;15.93;;;10.40;;
62475;SDS011;50739;45.670;11.936;2023-03-13T06:16:40;13.70;;;10.13;;
62475;SDS011;50739;45.670;11.936;2023-03-13T06:21:42;13.38;;;10.07;;
62475;SDS011;50739;45.670;11.936;2023-03-13T06:26:44;13.25;;;9.25;;
62475;SDS011;50739;45.670;11.936;2023-03-13T06:31:50;12.70;;;8.67;;
62475;SDS011;50739;45.670;11.936;2023-03-13T06:36:52;15.25;;;9.13;;
62475;SDS011;50739;45.670;11.936;2023-03-13T06:41:54;13.20;;;8.80;;
62475;SDS011;50739;45.670;11.936;2023-03-13T06:46:57;13.80;;;9.93;;
62475;SDS011;50739;45.670;11.936;2023-03-13T06:51:59;15.68;;;9.45;;
62475;SDS011;50739;45.670;11.936;2023-03-13T06:57:01;14.07;;;11.38;;
62475;SDS011;50739;45.670;11.936;2023-03-13T07:02:04;16.80;;;10.27;;
62475;SDS011;50739;45.670;11.936;2023-03-13T07:07:06;14.93;;;10.40;;
62475;SDS011;50739;45.670;11.936;2023-03-13T07:12:08;14.65;;;9.32;;
62475;SDS011;50739;45.670;11.936;2023-03-13T07:17:12;14.05;;;9.73;;
62475;SDS011;50739;45.670;11.936;2023-03-13T07:22:13;12.68;;;8.25;;
62475;SDS011;50739;45.670;11.936;2023-03-13T07:27:15;12.10;;;8.70;;
62475;SDS011;50739;45.670;11.936;2023-03-13T07:32:21;11.13;;;8.50;;
62475;SDS011;50739;45.670;11.936;2023-03-13T07:37:23;11.00;;;8.10;;
62475;SDS011;50739;45.670;11.936;2023-03-13T07:42:25;12.30;;;7.70;;
62475;SDS011;50739;45.670;11.936;2023-03-13T07:47:28;10.90;;;8.20;;
62475;SDS011;50739;45.670;11.936;2023-03-13T07:52:30;13.10;;;8.60;;
62475;SDS011;50739;45.670;11.936;2023-03-13T07:57:32;12.32;;;8.25;;
62475;SDS011;50739;45.670;11.936;2023-03-13T08:02:45;12.30;;;8.38;;
62475;SDS011;50739;45.670;11.936;2023-03-13T08:07:47;12.40;;;8.27;;
62475;SDS011;50739;45.670;11.936;2023-03-13T08:12:49;11.85;;;8.18;;
62475;SDS011;50739;45.670;11.936;2023-03-13T08:17:52;13.27;;;8.47;;
62475;SDS011;50739;45.670;11.936;2023-03-13T08:22:54;9.97;;;7.60;;
62475;SDS011;50739;45.670;11.936;2023-03-13T08:27:57;8.90;;;6.30;;
62475;SDS011;50739;45.670;11.936;2023-03-13T08:33:03;11.63;;;6.47;;
62475;SDS011;50739;45.670;11.936;2023-03-13T08:38:05;11.63;;;7.13;;
62475;SDS011;50739;45.670;11.936;2023-03-13T08:43:07;10.25;;;6.57;;
62475;SDS011;50739;45.670;11.936;2023-03-13T08:48:10;10.93;;;6.97;;
62475;SDS011;50739;45.670;11.936;2023-03-13T08:53:13;9.98;;;6.03;;
62475;SDS011;50739;45.670;11.936;2023-03-13T08:58:15;8.88;;;5.68;;
62475;SDS011;50739;45.670;11.936;2023-03-13T09:03:18;8.07;;;6.05;;
62475;SDS011;50739;45.670;11.936;2023-03-13T09:08:20;7.72;;;5.95;;
62475;SDS011;50739;45.670;11.936;2023-03-13T09:13:22;9.87;;;6.80;;
62475;SDS011;50739;45.670;11.936;2023-03-13T09:18:26;10.18;;;6.10;;
62475;SDS011;50739;45.670;11.936;2023-03-13T09:23:28;10.10;;;5.93;;
62475;SDS011;50739;45.670;11.936;2023-03-13T09:28:30;8.63;;;6.05;;
62475;SDS011;50739;45.670;11.936;2023-03-13T09:33:34;8.82;;;6.40;;
62475;SDS011;50739;45.670;11.936;2023-03-13T09:38:36;6.67;;;4.30;;
62475;SDS011;50739;45.670;11.936;2023-03-13T09:43:39;7.60;;;5.20;;
62475;SDS011;50739;45.670;11.936;2023-03-13T09:48:49;7.63;;;4.90;;
62475;SDS011;50739;45.670;11.936;2023-03-13T09:53:55;8.68;;;4.30;;
62475;SDS011;50739;45.670;11.936;2023-03-13T09:59:04;8.30;;;5.10;;
62475;SDS011;50739;45.670;11.936;2023-03-13T10:04:23;5.90;;;4.60;;
62475;SDS011;50739;45.670;11.936;2023-03-13T10:09:30;9.73;;;4.28;;
62475;SDS011;50739;45.670;11.936;2023-03-13T10:14:35;5.50;;;4.03;;
62475;SDS011;50739;45.670;11.936;2023-03-13T10:19:43;5.60;;;4.20;;
62475;SDS011;50739;45.670;11.936;2023-03-13T10:24:49;5.37;;;3.60;;
62475;SDS011;50739;45.670;11.936;2023-03-13T10:29:55;6.93;;;3.17;;
62475;SDS011;50739;45.670;11.936;2023-03-13T10:34:59;4.68;;;2.90;;
62475;SDS011;50739;45.670;11.936;2023-03-13T10:40:11;4.73;;;3.20;;
62475;SDS011;50739;45.670;11.936;2023-03-13T10:45:21;6.03;;;2.75;;
62475;SDS011;50739;45.670;11.936;2023-03-13T10:50:25;4.90;;;3.37;;
62475;SDS011;50739;45.670;11.936;2023-03-13T10:55:28;5.32;;;3.40;;
62475;SDS011;50739;45.670;11.936;2023-03-13T11:00:33;5.25;;;3.30;;
62475;SDS011;50739;45.670;11.936;2023-03-13T11:05:39;4.22;;;3.15;;
62475;SDS011;50739;45.670;11.936;2023-03-13T11:10:50;3.25;;;2.60;;
62475;SDS011;50739;45.670;11.936;2023-03-13T11:15:54;5.05;;;3.20;;
62475;SDS011;50739;45.670;11.936;2023-03-13T11:21:01;4.10;;;2.70;;
62475;SDS011;50739;45.670;11.936;2023-03-13T11:26:06;4.00;;;2.70;;
62475;SDS011;50739;45.670;11.936;2023-03-13T11:31:12;4.90;;;3.55;;
62475;SDS011;50739;45.670;11.936;2023-03-13T11:36:21;7.93;;;5.50;;
62475;SDS011;50739;45.670;11.936;2023-03-13T11:41:29;4.27;;;1.90;;
62475;SDS011;50739;45.670;11.936;2023-03-13T11:46:44;9.82;;;6.00;;
62475;SDS011;50739;45.670;11.936;2023-03-13T11:51:58;4.07;;;2.70;;
62475;SDS011;50739;45.670;11.936;2023-03-13T11:57:10;7.00;;;4.35;;
62475;SDS011;50739;45.670;11.936;2023-03-13T12:02:17;3.20;;;2.20;;
62475;SDS011;50739;45.670;11.936;2023-03-13T12:07:26;5.20;;;2.20;;
62475;SDS011;50739;45.670;11.936;2023-03-13T12:12:33;9.98;;;8.95;;
62475;SDS011;50739;45.670;11.936;2023-03-13T12:17:41;4.43;;;3.08;;
62475;SDS011;50739;45.670;11.936;2023-03-13T12:22:49;2.67;;;2.13;;
62475;SDS011;50739;45.670;11.936;2023-03-13T12:27:57;3.95;;;2.50;;
62475;SDS011;50739;45.670;11.936;2023-03-13T12:33:11;4.20;;;2.92;;
62475;SDS011;50739;45.670;11.936;2023-03-13T12:38:21;3.37;;;2.40;;
62475;SDS011;50739;45.670;11.936;2023-03-13T12:43:29;3.50;;;2.20;;
62475;SDS011;50739;45.670;11.936;2023-03-13T12:48:36;5.00;;;3.10;;
62475;SDS011;50739;45.670;11.936;2023-03-13T12:54:01;3.80;;;2.92;;
62475;SDS011;50739;45.670;11.936;2023-03-13T12:59:18;5.47;;;2.80;;
62475;SDS011;50739;45.670;11.936;2023-03-13T13:04:22;12.07;;;9.35;;
62475;SDS011;50739;45.670;11.936;2023-03-13T13:09:28;4.75;;;4.00;;
62475;SDS011;50739;45.670;11.936;2023-03-13T13:20:31;5.85;;;3.53;;
62475;SDS011;50739;45.670;11.936;2023-03-13T13:25:42;4.72;;;3.10;;
62475;SDS011;50739;45.670;11.936;2023-03-13T13:30:44;4.53;;;3.03;;
62475;SDS011;50739;45.670;11.936;2023-03-13T13:35:46;9.07;;;5.17;;
62475;SDS011;50739;45.670;11.936;2023-03-13T13:41:34;8.80;;;5.10;;
62475;SDS011;50739;45.670;11.936;2023-03-13T13:46:39;3.95;;;3.00;;
62475;SDS011;50739;45.670;11.936;2023-03-13T13:57:22;4.68;;;2.97;;
62475;SDS011;50739;45.670;11.936;2023-03-13T14:02:28;5.68;;;3.30;;
62475;SDS011;50739;45.670;11.936;2023-03-13T14:13:02;5.00;;;3.20;;
62475;SDS011;50739;45.670;11.936;2023-03-13T14:18:15;5.35;;;3.10;;
62475;SDS011;50739;45.670;11.936;2023-03-13T14:23:28;5.30;;;3.50;;
62475;SDS011;50739;45.670;11.936;2023-03-13T14:28:44;5.30;;;3.67;;
62475;SDS011;50739;45.670;11.936;2023-03-13T14:33:47;6.07;;;3.40;;
62475;SDS011;50739;45.670;11.936;2023-03-13T14:38:50;8.18;;;4.65;;
62475;SDS011;50739;45.670;11.936;2023-03-13T14:43:55;7.50;;;3.55;;
62475;SDS011;50739;45.670;11.936;2023-03-13T14:49:07;5.38;;;3.40;;
62475;SDS011;50739;45.670;11.936;2023-03-13T14:54:25;5.77;;;3.33;;
62475;SDS011;50739;45.670;11.936;2023-03-13T14:59:31;5.33;;;3.50;;
62475;SDS011;50739;45.670;11.936;2023-03-13T15:04:49;5.03;;;3.43;;
62475;SDS011;50739;45.670;11.936;2023-03-13T15:09:52;8.23;;;5.20;;
62475;SDS011;50739;45.670;11.936;2023-03-13T15:14:57;9.23;;;5.68;;
62475;SDS011;50739;45.670;11.936;2023-03-13T15:19:59;14.13;;;4.50;;
62475;SDS011;50739;45.670;11.936;2023-03-13T15:25:02;5.75;;;4.15;;
62475;SDS011;50739;45.670;11.936;2023-03-13T15:30:09;5.45;;;3.70;;
62475;SDS011;50739;45.670;11.936;2023-03-13T15:35:23;6.85;;;4.03;;
62475;SDS011;50739;45.670;11.936;2023-03-13T15:40:27;6.07;;;4.07;;
62475;SDS011;50739;45.670;11.936;2023-03-13T15:45:31;6.93;;;4.30;;
62475;SDS011;50739;45.670;11.936;2023-03-13T15:50:33;31.90;;;5.97;;
62475;SDS011;50739;45.670;11.936;2023-03-13T15:55:35;10.70;;;5.20;;
62475;SDS011;50739;45.670;11.936;2023-03-13T16:00:39;6.90;;;4.00;;
62475;SDS011;50739;45.670;11.936;2023-03-13T16:05:41;49.92;;;7.22;;
62475;SDS011;50739;45.670;11.936;2023-03-13T16:10:43;8.50;;;4.23;;
62475;SDS011;50739;45.670;11.936;2023-03-13T16:15:47;5.40;;;3.83;;
62475;SDS011;50739;45.670;11.936;2023-03-13T16:20:49;9.18;;;4.13;;
62475;SDS011;50739;45.670;11.936;2023-03-13T16:25:52;6.20;;;4.00;;
62475;SDS011;50739;45.670;11.936;2023-03-13T16:30:55;4.35;;;3.17;;
62475;SDS011;50739;45.670;11.936;2023-03-13T16:35:57;4.37;;;2.47;;
62475;SDS011;50739;45.670;11.936;2023-03-13T16:40:59;4.88;;;2.58;;
62475;SDS011;50739;45.670;11.936;2023-03-13T16:46:04;6.03;;;2.95;;
62475;SDS011;50739;45.670;11.936;2023-03-13T16:51:13;8.30;;;3.10;;
62475;SDS011;50739;45.670;11.936;2023-03-13T16:56:24;5.87;;;3.57;;
62475;SDS011;50739;45.670;11.936;2023-03-13T17:01:30;10.37;;;5.80;;
62475;SDS011;50739;45.670;11.936;2023-03-13T17:06:33;8.07;;;3.80;;
62475;SDS011;50739;45.670;11.936;2023-03-13T17:11:36;10.40;;;3.43;;
62475;SDS011;50739;45.670;11.936;2023-03-13T17:16:40;7.13;;;3.60;;
62475;SDS011;50739;45.670;11.936;2023-03-13T17:21:44;6.30;;;3.30;;
62475;SDS011;50739;45.670;11.936;2023-03-13T17:26:46;9.15;;;3.85;;
62475;SDS011;50739;45.670;11.936;2023-03-13T17:31:49;22.77;;;17.40;;
62475;SDS011;50739;45.670;11.936;2023-03-13T17:36:51;12.18;;;8.30;;
62475;SDS011;50739;45.670;11.936;2023-03-13T17:41:53;9.23;;;6.17;;
62475;SDS011;50739;45.670;11.936;2023-03-13T17:46:58;7.72;;;5.88;;
62475;SDS011;50739;45.670;11.936;2023-03-13T17:52:00;12.63;;;6.43;;
62475;SDS011;50739;45.670;11.936;2023-03-13T17:57:01;9.27;;;6.33;;
62475;SDS011;50739;45.670;11.936;2023-03-13T18:02:08;9.38;;;6.25;;
62475;SDS011;50739;45.670;11.936;2023-03-13T18:07:13;10.32;;;7.32;;
62475;SDS011;50739;45.670;11.936;2023-03-13T18:12:17;13.47;;;8.10;;
62475;SDS011;50739;45.670;11.936;2023-03-13T18:17:21;11.00;;;8.23;;
62475;SDS011;50739;45.670;11.936;2023-03-13T18:22:24;12.40;;;8.50;;
62475;SDS011;50739;45.670;11.936;2023-03-13T18:27:26;13.18;;;8.95;;
62475;SDS011;50739;45.670;11.936;2023-03-13T18:32:30;12.15;;;9.00;;
62475;SDS011;50739;45.670;11.936;2023-03-13T18:37:31;12.70;;;8.98;;
62475;SDS011;50739;45.670;11.936;2023-03-13T18:42:33;14.40;;;9.13;;
62475;SDS011;50739;45.670;11.936;2023-03-13T18:47:37;21.67;;;10.98;;
62475;SDS011;50739;45.670;11.936;2023-03-13T18:52:38;19.40;;;11.95;;
62475;SDS011;50739;45.670;11.936;2023-03-13T18:57:40;17.95;;;11.93;;
62475;SDS011;50739;45.670;11.936;2023-03-13T19:07:48;16.23;;;10.67;;
62475;SDS011;50739;45.670;11.936;2023-03-13T19:12:50;19.35;;;14.00;;
62475;SDS011;50739;45.670;11.936;2023-03-13T19:17:54;21.60;;;14.60;;
62475;SDS011;50739;45.670;11.936;2023-03-13T19:22:59;21.50;;;14.93;;
62475;SDS011;50739;45.670;11.936;2023-03-13T19:28:00;21.63;;;14.30;;
62475;SDS011;50739;45.670;11.936;2023-03-13T19:33:04;22.77;;;13.98;;
62475;SDS011;50739;45.670;11.936;2023-03-13T19:38:07;23.48;;;13.30;;
62475;SDS011;50739;45.670;11.936;2023-03-13T19:43:12;19.97;;;12.60;;
62475;SDS011;50739;45.670;11.936;2023-03-13T19:48:15;24.25;;;14.77;;
62475;SDS011;50739;45.670;11.936;2023-03-13T19:53:17;21.90;;;13.85;;
62475;SDS011;50739;45.670;11.936;2023-03-13T19:58:19;18.77;;;14.27;;
62475;SDS011;50739;45.670;11.936;2023-03-13T20:03:22;26.77;;;14.70;;
62475;SDS011;50739;45.670;11.936;2023-03-13T20:08:24;23.92;;;14.95;;
62475;SDS011;50739;45.670;11.936;2023-03-13T20:13:26;19.80;;;13.55;;
62475;SDS011;50739;45.670;11.936;2023-03-13T20:18:29;18.80;;;13.98;;
62475;SDS011;50739;45.670;11.936;2023-03-13T20:23:31;23.42;;;15.10;;
62475;SDS011;50739;45.670;11.936;2023-03-13T20:28:33;22.87;;;14.40;;
62475;SDS011;50739;45.670;11.936;2023-03-13T20:33:37;20.25;;;15.05;;
62475;SDS011;50739;45.670;11.936;2023-03-13T20:38:40;21.03;;;14.80;;
62475;SDS011;50739;45.670;11.936;2023-03-13T20:43:42;21.35;;;13.70;;
62475;SDS011;50739;45.670;11.936;2023-03-13T20:48:45;21.20;;;13.95;;
62475;SDS011;50739;45.670;11.936;2023-03-13T20:53:47;18.43;;;13.70;;
62475;SDS011;50739;45.670;11.936;2023-03-13T20:58:49;23.38;;;13.88;;
62475;SDS011;50739;45.670;11.936;2023-03-13T21:03:52;17.60;;;13.47;;
62475;SDS011;50739;45.670;11.936;2023-03-13T21:08:54;20.13;;;14.07;;
62475;SDS011;50739;45.670;11.936;2023-03-13T21:13:56;20.15;;;13.90;;
62475;SDS011;50739;45.670;11.936;2023-03-13T21:18:59;18.83;;;13.05;;
62475;SDS011;50739;45.670;11.936;2023-03-13T21:24:01;22.15;;;14.32;;
62475;SDS011;50739;45.670;11.936;2023-03-13T21:29:03;19.13;;;14.40;;
62475;SDS011;50739;45.670;11.936;2023-03-13T21:34:09;19.75;;;14.35;;
62475;SDS011;50739;45.670;11.936;2023-03-13T21:39:11;18.80;;;13.55;;
62475;SDS011;50739;45.670;11.936;2023-03-13T21:44:12;15.65;;;11.20;;
62475;SDS011;50739;45.670;11.936;2023-03-13T21:49:20;18.03;;;11.67;;
62475;SDS011;50739;45.670;11.936;2023-03-13T21:54:22;17.17;;;11.30;;
62475;SDS011;50739;45.670;11.936;2023-03-13T21:59:24;16.90;;;11.82;;
62475;SDS011;50739;45.670;11.936;2023-03-13T22:04:28;13.27;;;10.23;;
62475;SDS011;50739;45.670;11.936;2023-03-13T22:09:30;15.33;;;11.20;;
62475;SDS011;50739;45.670;11.936;2023-03-13T22:14:34;17.83;;;11.48;;
62475;SDS011;50739;45.670;11.936;2023-03-13T22:19:37;15.47;;;11.60;;
62475;SDS011;50739;45.670;11.936;2023-03-13T22:24:39;18.42;;;13.00;;
62475;SDS011;50739;45.670;11.936;2023-03-13T22:29:41;17.55;;;12.80;;
62475;SDS011;50739;45.670;11.936;2023-03-13T22:34:44;17.85;;;13.55;;
62475;SDS011;50739;45.670;11.936;2023-03-13T22:39:47;19.40;;;13.60;;
62475;SDS011;50739;45.670;11.936;2023-03-13T22:44:53;19.40;;;13.37;;
62475;SDS011;50739;45.670;11.936;2023-03-13T22:49:56;18.13;;;13.07;;
62475;SDS011;50739;45.670;11.936;2023-03-13T22:54:58;19.50;;;13.55;;
62475;SDS011;50739;45.670;11.936;2023-03-13T23:00:00;20.40;;;13.53;;
62475;SDS011;50739;45.670;11.936;2023-03-13T23:05:03;22.60;;;13.43;;
62475;SDS011;50739;45.670;11.936;2023-03-13T23:10:06;15.80;;;11.43;;
62475;SDS011;50739;45.670;11.936;2023-03-13T23:15:09;13.30;;;9.98;;
62475;SDS011;50739;45.670;11.936;2023-03-13T23:20:13;13.13;;;9.00;;
62475;SDS011;50739;45.670;11.936;2023-03-13T23:25:15;12.37;;;8.83;;
62475;SDS011;50739;45.670;11.936;2023-03-13T23:30:18;12.65;;;7.95;;
62475;SDS011;50739;45.670;11.936;2023-03-13T23:35:21;9.90;;;7.00;;
62475;SDS011;50739;45.670;11.936;2023-03-13T23:40:23;9.82;;;6.65;;
62475;SDS011;50739;45.670;11.936;2023-03-13T23:45:27;10.77;;;6.80;;
62475;SDS011;50739;45.670;11.936;2023-03-13T23:50:30;11.27;;;7.43;;
62475;SDS011;50739;45.670;11.936;2023-03-13T23:55:32;11.85;;;6.95;;
